DLH09X EDDM-LFBO
Flight info
| Callsign | DLH09X |
|---|---|
| Flight time | 1h 27m |
| Altitude | 33000 |
| Route | ALG2S/26L ALG Y109 UMTEX Y100 TRA DCT LUTIX DCT BENOT DCT NEMOS DCT NINTU DCT MEBAK DCT REPSI DCT LERGA DCT MINSO DCT NARAK |
| Aircraft | A21N/M-SDE2E3FGHIRWXY/LB1 |
Departure
| Time | 2026-05-05 19:39 |
|---|---|
| Airport | Munich Airport (EDDM) |
Arrival
| Time | 2026-05-05 21:06 |
|---|---|
| Airport | Toulouse-Blagnac Airport (LFBO) |
| Time | Latitude | Longitude | Altitude | Speed | Heading |
|---|---|---|---|---|---|
| 2026-05-05 18:38 | 48.35508 | 11.80011 | 1491 ft | 0 kts | 263° |
| 2026-05-05 19:25 | 48.35508 | 11.80023 | 1491 ft | 4 kts | 263° |
| 2026-05-05 19:25 | 48.35512 | 11.80063 | 1486 ft | 4 kts | 263° |
| 2026-05-05 19:25 | 48.35515 | 11.80103 | 1480 ft | 4 kts | 260° |
| 2026-05-05 19:26 | 48.35524 | 11.80137 | 1475 ft | 4 kts | 220° |
| 2026-05-05 19:26 | 48.35542 | 11.80146 | 1478 ft | 1 kts | 173° |
| 2026-05-05 19:26 | 48.35564 | 11.80142 | 1478 ft | 1 kts | 173° |
| 2026-05-05 19:30 | 48.35562 | 11.80143 | 1477 ft | 2 kts | 173° |
| 2026-05-05 19:30 | 48.35544 | 11.80146 | 1478 ft | 4 kts | 173° |
| 2026-05-05 19:30 | 48.35501 | 11.80153 | 1479 ft | 8 kts | 173° |
| 2026-05-05 19:31 | 48.35439 | 11.80164 | 1477 ft | 11 kts | 173° |
| 2026-05-05 19:31 | 48.35357 | 11.80193 | 1479 ft | 14 kts | 172° |
| 2026-05-05 19:31 | 48.35252 | 11.80210 | 1482 ft | 16 kts | 173° |
| 2026-05-05 19:31 | 48.35178 | 11.80224 | 1487 ft | 7 kts | 173° |
| 2026-05-05 19:32 | 48.35125 | 11.80216 | 1484 ft | 9 kts | 219° |
| 2026-05-05 19:32 | 48.35103 | 11.80117 | 1491 ft | 11 kts | 262° |
| 2026-05-05 19:32 | 48.35093 | 11.79983 | 1491 ft | 15 kts | 264° |
| 2026-05-05 19:32 | 48.35081 | 11.79819 | 1484 ft | 16 kts | 262° |
| 2026-05-05 19:33 | 48.35068 | 11.79673 | 1485 ft | 5 kts | 258° |
| 2026-05-05 19:33 | 48.35034 | 11.79662 | 1488 ft | 6 kts | 173° |
| 2026-05-05 19:33 | 48.34982 | 11.79671 | 1477 ft | 9 kts | 174° |
| 2026-05-05 19:33 | 48.34911 | 11.79682 | 1485 ft | 12 kts | 173° |
| 2026-05-05 19:34 | 48.34853 | 11.79692 | 1485 ft | 13 kts | 173° |
| 2026-05-05 19:34 | 48.34809 | 11.79803 | 1488 ft | 15 kts | 80° |
| 2026-05-05 19:34 | 48.34821 | 11.79963 | 1491 ft | 16 kts | 84° |
| 2026-05-05 19:35 | 48.34788 | 11.80207 | 1491 ft | 12 kts | 130° |
| 2026-05-05 19:35 | 48.34707 | 11.80246 | 1491 ft | 13 kts | 172° |
| 2026-05-05 19:35 | 48.34627 | 11.80261 | 1479 ft | 8 kts | 173° |
| 2026-05-05 19:35 | 48.34591 | 11.80268 | 1488 ft | 0 kts | 173° |
| 2026-05-05 19:37 | 48.34590 | 11.80268 | 1488 ft | 1 kts | 173° |
| 2026-05-05 19:37 | 48.34543 | 11.80276 | 1491 ft | 9 kts | 173° |
| 2026-05-05 19:37 | 48.34480 | 11.80250 | 1486 ft | 11 kts | 222° |
| 2026-05-05 19:38 | 48.34459 | 11.80170 | 1491 ft | 3 kts | 262° |
| 2026-05-05 19:38 | 48.34456 | 11.80145 | 1491 ft | 4 kts | 262° |
| 2026-05-05 19:38 | 48.34431 | 11.79837 | 1482 ft | 66 kts | 264° |
| 2026-05-05 19:38 | 48.34353 | 11.78791 | 1489 ft | 133 kts | 263° |
| 2026-05-05 19:39 | 48.34229 | 11.77205 | 1542 ft | 167 kts | 263° |
| 2026-05-05 19:39 | 48.34099 | 11.75513 | 2202 ft | 161 kts | 264° |
| 2026-05-05 19:39 | 48.33989 | 11.73838 | 2765 ft | 164 kts | 264° |
| 2026-05-05 19:39 | 48.33848 | 11.72072 | 3120 ft | 176 kts | 264° |
| 2026-05-05 19:40 | 48.33699 | 11.70177 | 3487 ft | 190 kts | 264° |
| 2026-05-05 19:40 | 48.33542 | 11.68128 | 3836 ft | 205 kts | 264° |
| 2026-05-05 19:40 | 48.33375 | 11.65952 | 4160 ft | 219 kts | 264° |
| 2026-05-05 19:40 | 48.33197 | 11.63626 | 4594 ft | 229 kts | 264° |
| 2026-05-05 19:41 | 48.33021 | 11.61181 | 4919 ft | 242 kts | 264° |
| 2026-05-05 19:41 | 48.32834 | 11.58607 | 5249 ft | 252 kts | 264° |
| 2026-05-05 19:41 | 48.32651 | 11.56049 | 5671 ft | 257 kts | 264° |
| 2026-05-05 19:41 | 48.32456 | 11.53366 | 6144 ft | 259 kts | 263° |
| 2026-05-05 19:42 | 48.32259 | 11.50659 | 6606 ft | 261 kts | 263° |
| 2026-05-05 19:42 | 48.32059 | 11.47939 | 7066 ft | 262 kts | 263° |
| 2026-05-05 19:42 | 48.31858 | 11.45218 | 7501 ft | 263 kts | 263° |
| 2026-05-05 19:42 | 48.31656 | 11.42477 | 7954 ft | 264 kts | 263° |
| 2026-05-05 19:43 | 48.31451 | 11.39720 | 8400 ft | 266 kts | 262° |
| 2026-05-05 19:43 | 48.31242 | 11.36954 | 8827 ft | 267 kts | 262° |
| 2026-05-05 19:43 | 48.31033 | 11.34177 | 9239 ft | 269 kts | 262° |
| 2026-05-05 19:43 | 48.30821 | 11.31371 | 9655 ft | 270 kts | 261° |
| 2026-05-05 19:44 | 48.30421 | 11.28630 | 10012 ft | 270 kts | 248° |
| 2026-05-05 19:44 | 48.29533 | 11.26122 | 10225 ft | 277 kts | 238° |
| 2026-05-05 19:44 | 48.28479 | 11.23650 | 10358 ft | 285 kts | 237° |
| 2026-05-05 19:44 | 48.27372 | 11.21066 | 10538 ft | 304 kts | 237° |
| 2026-05-05 19:45 | 48.26196 | 11.18305 | 10768 ft | 324 kts | 237° |
| 2026-05-05 19:45 | 48.24949 | 11.15363 | 11039 ft | 342 kts | 238° |
| 2026-05-05 19:45 | 48.23681 | 11.12347 | 11583 ft | 349 kts | 237° |
| 2026-05-05 19:45 | 48.22376 | 11.09256 | 12265 ft | 353 kts | 237° |
| 2026-05-05 19:46 | 48.21411 | 11.06960 | 12777 ft | 356 kts | 237° |
| 2026-05-05 19:46 | 48.20366 | 11.04478 | 13333 ft | 359 kts | 237° |
| 2026-05-05 19:46 | 48.19068 | 11.01399 | 13944 ft | 362 kts | 237° |
| 2026-05-05 19:46 | 48.17718 | 10.98198 | 14538 ft | 366 kts | 237° |
| 2026-05-05 19:47 | 48.16348 | 10.94950 | 15128 ft | 370 kts | 237° |
| 2026-05-05 19:47 | 48.14965 | 10.91684 | 15714 ft | 373 kts | 237° |
| 2026-05-05 19:47 | 48.13567 | 10.88384 | 16313 ft | 377 kts | 237° |
| 2026-05-05 19:47 | 48.12153 | 10.85050 | 16913 ft | 381 kts | 237° |
| 2026-05-05 19:48 | 48.10759 | 10.81666 | 17504 ft | 385 kts | 240° |
| 2026-05-05 19:48 | 48.09682 | 10.77974 | 18089 ft | 389 kts | 250° |
| 2026-05-05 19:48 | 48.08907 | 10.74080 | 18579 ft | 393 kts | 253° |
| 2026-05-05 19:48 | 48.08425 | 10.71478 | 18769 ft | 394 kts | 253° |
| 2026-05-05 19:49 | 48.07681 | 10.67462 | 18858 ft | 394 kts | 253° |
| 2026-05-05 19:49 | 48.06939 | 10.63522 | 19035 ft | 395 kts | 252° |
| 2026-05-05 19:49 | 48.06182 | 10.59555 | 19477 ft | 398 kts | 252° |
| 2026-05-05 19:49 | 48.05416 | 10.55557 | 20009 ft | 400 kts | 252° |
| 2026-05-05 19:50 | 48.04644 | 10.51542 | 20520 ft | 403 kts | 252° |
| 2026-05-05 19:50 | 48.03865 | 10.47520 | 21026 ft | 405 kts | 252° |
| 2026-05-05 19:50 | 48.03079 | 10.43468 | 21519 ft | 407 kts | 252° |
| 2026-05-05 19:50 | 48.02292 | 10.39395 | 21987 ft | 409 kts | 252° |
| 2026-05-05 19:51 | 48.01496 | 10.35297 | 22441 ft | 412 kts | 252° |
| 2026-05-05 19:51 | 48.00707 | 10.31242 | 22894 ft | 414 kts | 252° |
| 2026-05-05 19:51 | 47.99920 | 10.27233 | 23309 ft | 416 kts | 251° |
| 2026-05-05 19:51 | 47.98963 | 10.23140 | 23685 ft | 418 kts | 248° |
| 2026-05-05 19:52 | 47.97945 | 10.19062 | 24035 ft | 420 kts | 247° |
| 2026-05-05 19:52 | 47.96915 | 10.14968 | 24380 ft | 422 kts | 247° |
| 2026-05-05 19:52 | 47.95889 | 10.10871 | 24739 ft | 424 kts | 248° |
| 2026-05-05 19:52 | 47.94858 | 10.06740 | 25065 ft | 425 kts | 248° |
| 2026-05-05 19:53 | 47.93819 | 10.02586 | 25390 ft | 427 kts | 248° |
| 2026-05-05 19:53 | 47.92771 | 9.98416 | 25724 ft | 429 kts | 247° |
| 2026-05-05 19:53 | 47.91765 | 9.94429 | 26034 ft | 431 kts | 247° |
| 2026-05-05 19:53 | 47.90709 | 9.90239 | 26344 ft | 433 kts | 247° |
| 2026-05-05 19:54 | 47.89648 | 9.86031 | 26637 ft | 435 kts | 247° |
| 2026-05-05 19:54 | 47.88576 | 9.81797 | 26952 ft | 436 kts | 248° |
| 2026-05-05 19:54 | 47.87605 | 9.77890 | 27223 ft | 438 kts | 248° |
| 2026-05-05 19:54 | 47.86528 | 9.73573 | 27572 ft | 438 kts | 248° |
| 2026-05-05 19:55 | 47.85480 | 9.69373 | 27966 ft | 437 kts | 248° |
| 2026-05-05 19:55 | 47.84425 | 9.65145 | 28379 ft | 435 kts | 248° |
| 2026-05-05 19:55 | 47.83559 | 9.60816 | 28760 ft | 437 kts | 255° |
| 2026-05-05 19:55 | 47.82993 | 9.56370 | 29141 ft | 436 kts | 257° |
| 2026-05-05 19:56 | 47.82466 | 9.51932 | 29499 ft | 435 kts | 257° |
| 2026-05-05 19:56 | 47.81943 | 9.47504 | 29846 ft | 435 kts | 257° |
| 2026-05-05 19:56 | 47.81436 | 9.43221 | 30153 ft | 434 kts | 257° |
| 2026-05-05 19:56 | 47.80897 | 9.38794 | 30440 ft | 433 kts | 257° |
| 2026-05-05 19:57 | 47.80356 | 9.34403 | 30719 ft | 432 kts | 257° |
| 2026-05-05 19:57 | 47.79998 | 9.31491 | 30901 ft | 432 kts | 257° |
| 2026-05-05 19:57 | 47.79278 | 9.25636 | 31274 ft | 430 kts | 257° |
| 2026-05-05 19:57 | 47.78739 | 9.21241 | 31540 ft | 429 kts | 257° |
| 2026-05-05 19:58 | 47.78202 | 9.16879 | 31804 ft | 429 kts | 257° |
| 2026-05-05 19:58 | 47.77665 | 9.12521 | 32054 ft | 428 kts | 257° |
| 2026-05-05 19:58 | 47.77131 | 9.08166 | 32294 ft | 428 kts | 257° |
| 2026-05-05 19:58 | 47.76595 | 9.03814 | 32533 ft | 427 kts | 256° |
| 2026-05-05 19:59 | 47.76079 | 8.99703 | 32740 ft | 427 kts | 256° |
| 2026-05-05 19:59 | 47.75538 | 8.95367 | 32953 ft | 426 kts | 256° |
| 2026-05-05 19:59 | 47.74996 | 8.91032 | 33162 ft | 426 kts | 256° |
| 2026-05-05 19:59 | 47.74452 | 8.86705 | 33358 ft | 426 kts | 256° |
| 2026-05-05 20:00 | 47.73907 | 8.82386 | 33577 ft | 425 kts | 256° |
| 2026-05-05 20:00 | 47.73358 | 8.78067 | 33761 ft | 424 kts | 256° |
| 2026-05-05 20:00 | 47.72812 | 8.73773 | 33936 ft | 424 kts | 256° |
| 2026-05-05 20:00 | 47.72256 | 8.69460 | 34090 ft | 424 kts | 256° |
| 2026-05-05 20:01 | 47.71698 | 8.65170 | 34223 ft | 424 kts | 256° |
| 2026-05-05 20:01 | 47.71145 | 8.60875 | 34343 ft | 425 kts | 256° |
| 2026-05-05 20:01 | 47.70604 | 8.56698 | 34461 ft | 425 kts | 256° |
| 2026-05-05 20:01 | 47.70050 | 8.52385 | 34591 ft | 425 kts | 256° |
| 2026-05-05 20:02 | 47.69491 | 8.48096 | 34728 ft | 424 kts | 255° |
| 2026-05-05 20:02 | 47.68628 | 8.43926 | 34832 ft | 421 kts | 245° |
| 2026-05-05 20:02 | 47.67269 | 8.40144 | 34921 ft | 419 kts | 235° |
| 2026-05-05 20:03 | 47.63880 | 8.33142 | 34924 ft | 417 kts | 232° |
| 2026-05-05 20:03 | 47.60470 | 8.26193 | 34905 ft | 416 kts | 233° |
| 2026-05-05 20:04 | 47.57085 | 8.19242 | 34890 ft | 416 kts | 233° |
| 2026-05-05 20:04 | 47.53695 | 8.12290 | 34886 ft | 416 kts | 233° |
| 2026-05-05 20:05 | 47.50712 | 8.06177 | 34884 ft | 416 kts | 233° |
| 2026-05-05 20:05 | 47.47327 | 7.99260 | 34891 ft | 415 kts | 233° |
| 2026-05-05 20:06 | 47.43937 | 7.92358 | 34891 ft | 415 kts | 233° |
| 2026-05-05 20:06 | 47.40619 | 7.85612 | 34887 ft | 414 kts | 233° |
| 2026-05-05 20:07 | 47.37230 | 7.78738 | 34885 ft | 414 kts | 233° |
| 2026-05-05 20:07 | 47.33824 | 7.71874 | 34900 ft | 414 kts | 232° |
| 2026-05-05 20:08 | 47.30430 | 7.65014 | 34886 ft | 414 kts | 233° |
| 2026-05-05 20:08 | 47.27001 | 7.58110 | 34906 ft | 414 kts | 233° |
| 2026-05-05 20:09 | 47.23589 | 7.51279 | 34915 ft | 414 kts | 232° |
| 2026-05-05 20:09 | 47.20173 | 7.44466 | 34909 ft | 414 kts | 232° |
| 2026-05-05 20:10 | 47.16739 | 7.37602 | 34919 ft | 413 kts | 232° |
| 2026-05-05 20:10 | 47.13187 | 7.30985 | 34903 ft | 413 kts | 231° |
| 2026-05-05 20:11 | 47.10216 | 7.25509 | 34922 ft | 414 kts | 231° |
| 2026-05-05 20:11 | 47.06693 | 7.19016 | 34896 ft | 414 kts | 231° |
| 2026-05-05 20:12 | 47.03100 | 7.12412 | 34890 ft | 414 kts | 230° |
| 2026-05-05 20:12 | 46.99479 | 7.05785 | 34897 ft | 414 kts | 230° |
| 2026-05-05 20:13 | 46.95875 | 6.99205 | 34902 ft | 414 kts | 230° |
| 2026-05-05 20:13 | 46.92289 | 6.92681 | 34905 ft | 414 kts | 230° |
| 2026-05-05 20:14 | 46.88662 | 6.86104 | 34905 ft | 414 kts | 230° |
| 2026-05-05 20:14 | 46.85020 | 6.79513 | 34907 ft | 414 kts | 230° |
| 2026-05-05 20:15 | 46.81349 | 6.72886 | 34904 ft | 414 kts | 230° |
| 2026-05-05 20:15 | 46.77743 | 6.66390 | 34903 ft | 414 kts | 230° |
| 2026-05-05 20:16 | 46.74110 | 6.59866 | 34896 ft | 414 kts | 230° |
| 2026-05-05 20:16 | 46.70679 | 6.53711 | 34893 ft | 414 kts | 230° |
| 2026-05-05 20:17 | 46.67075 | 6.47277 | 34884 ft | 414 kts | 230° |
| 2026-05-05 20:17 | 46.63437 | 6.40782 | 34889 ft | 413 kts | 230° |
| 2026-05-05 20:18 | 46.59775 | 6.34262 | 34889 ft | 413 kts | 230° |
| 2026-05-05 20:18 | 46.56158 | 6.27838 | 34890 ft | 413 kts | 230° |
| 2026-05-05 20:19 | 46.52512 | 6.21381 | 34894 ft | 413 kts | 230° |
| 2026-05-05 20:19 | 46.48858 | 6.14924 | 34898 ft | 413 kts | 230° |
| 2026-05-05 20:20 | 46.45203 | 6.08481 | 34900 ft | 413 kts | 230° |
| 2026-05-05 20:20 | 46.41543 | 6.02047 | 34900 ft | 413 kts | 230° |
| 2026-05-05 20:21 | 46.37881 | 5.95620 | 34901 ft | 414 kts | 230° |
| 2026-05-05 20:21 | 46.34278 | 5.89310 | 34904 ft | 414 kts | 229° |
| 2026-05-05 20:22 | 46.30607 | 5.82901 | 34906 ft | 414 kts | 229° |
| 2026-05-05 20:22 | 46.26906 | 5.76447 | 34901 ft | 414 kts | 229° |
| 2026-05-05 20:23 | 46.23228 | 5.70049 | 34898 ft | 414 kts | 229° |
| 2026-05-05 20:23 | 46.19570 | 5.63702 | 34895 ft | 414 kts | 229° |
| 2026-05-05 20:24 | 46.15877 | 5.57324 | 34887 ft | 414 kts | 229° |
| 2026-05-05 20:24 | 46.12448 | 5.50615 | 34892 ft | 415 kts | 234° |
| 2026-05-05 20:25 | 46.09160 | 5.43723 | 34893 ft | 415 kts | 234° |
| 2026-05-05 20:25 | 46.06296 | 5.37751 | 34887 ft | 416 kts | 234° |
| 2026-05-05 20:26 | 46.03001 | 5.30908 | 34888 ft | 416 kts | 234° |
| 2026-05-05 20:26 | 45.99749 | 5.24169 | 34890 ft | 417 kts | 234° |
| 2026-05-05 20:27 | 45.96431 | 5.17314 | 34891 ft | 418 kts | 234° |
| 2026-05-05 20:27 | 45.93107 | 5.10463 | 34895 ft | 418 kts | 234° |
| 2026-05-05 20:28 | 45.89771 | 5.03603 | 34896 ft | 419 kts | 234° |
| 2026-05-05 20:28 | 45.86428 | 4.96749 | 34901 ft | 419 kts | 234° |
| 2026-05-05 20:29 | 45.83073 | 4.89884 | 34908 ft | 420 kts | 234° |
| 2026-05-05 20:29 | 45.79717 | 4.83030 | 34904 ft | 420 kts | 234° |
| 2026-05-05 20:30 | 45.76347 | 4.76163 | 34906 ft | 420 kts | 234° |
| 2026-05-05 20:30 | 45.72974 | 4.69311 | 34904 ft | 421 kts | 234° |
| 2026-05-05 20:31 | 45.69620 | 4.62513 | 34903 ft | 421 kts | 234° |
| 2026-05-05 20:31 | 45.66309 | 4.55813 | 34915 ft | 421 kts | 233° |
| 2026-05-05 20:32 | 45.62922 | 4.48981 | 34927 ft | 421 kts | 233° |
| 2026-05-05 20:32 | 45.59508 | 4.42108 | 34933 ft | 421 kts | 233° |
| 2026-05-05 20:33 | 45.56134 | 4.35326 | 34935 ft | 422 kts | 233° |
| 2026-05-05 20:33 | 45.52729 | 4.28506 | 34938 ft | 422 kts | 233° |
| 2026-05-05 20:34 | 45.49322 | 4.21697 | 34940 ft | 421 kts | 233° |
| 2026-05-05 20:34 | 45.45910 | 4.14906 | 34933 ft | 421 kts | 233° |
| 2026-05-05 20:35 | 45.42495 | 4.08129 | 34926 ft | 421 kts | 233° |
| 2026-05-05 20:35 | 45.39081 | 4.01365 | 34920 ft | 421 kts | 233° |
| 2026-05-05 20:36 | 45.35659 | 3.94594 | 34916 ft | 420 kts | 233° |
| 2026-05-05 20:36 | 45.32290 | 3.87938 | 34898 ft | 420 kts | 233° |
| 2026-05-05 20:37 | 45.28872 | 3.81210 | 34901 ft | 420 kts | 233° |
| 2026-05-05 20:37 | 45.25469 | 3.74507 | 34905 ft | 419 kts | 234° |
| 2026-05-05 20:38 | 45.22142 | 3.67745 | 34907 ft | 419 kts | 234° |
| 2026-05-05 20:38 | 45.18804 | 3.60975 | 34902 ft | 419 kts | 234° |
| 2026-05-05 20:39 | 45.15461 | 3.54203 | 34905 ft | 419 kts | 234° |
| 2026-05-05 20:39 | 45.12112 | 3.47438 | 34909 ft | 419 kts | 234° |
| 2026-05-05 20:40 | 45.08762 | 3.40686 | 34915 ft | 419 kts | 234° |
| 2026-05-05 20:40 | 45.05412 | 3.33955 | 34914 ft | 419 kts | 234° |
| 2026-05-05 20:41 | 45.02052 | 3.27218 | 34917 ft | 419 kts | 234° |
| 2026-05-05 20:41 | 44.99319 | 3.21746 | 34917 ft | 419 kts | 234° |
| 2026-05-05 20:42 | 44.95949 | 3.15020 | 34921 ft | 419 kts | 234° |
| 2026-05-05 20:42 | 44.92211 | 3.08765 | 34918 ft | 418 kts | 219° |
| 2026-05-05 20:43 | 44.87501 | 3.03839 | 34926 ft | 418 kts | 217° |
| 2026-05-05 20:43 | 44.82843 | 2.99006 | 34923 ft | 417 kts | 217° |
| 2026-05-05 20:43 | 44.80526 | 2.96577 | 34581 ft | 415 kts | 217° |
| 2026-05-05 20:44 | 44.78217 | 2.94148 | 34311 ft | 414 kts | 217° |
| 2026-05-05 20:44 | 44.75907 | 2.91722 | 34078 ft | 414 kts | 217° |
| 2026-05-05 20:44 | 44.73605 | 2.89308 | 33819 ft | 413 kts | 217° |
| 2026-05-05 20:44 | 44.71304 | 2.86897 | 33553 ft | 413 kts | 217° |
| 2026-05-05 20:45 | 44.66694 | 2.82073 | 33019 ft | 414 kts | 217° |
| 2026-05-05 20:45 | 44.64382 | 2.79655 | 32721 ft | 414 kts | 216° |
| 2026-05-05 20:45 | 44.62080 | 2.77251 | 32148 ft | 411 kts | 216° |
| 2026-05-05 20:46 | 44.59787 | 2.74856 | 31460 ft | 410 kts | 216° |
| 2026-05-05 20:46 | 44.57491 | 2.72466 | 30759 ft | 410 kts | 216° |
| 2026-05-05 20:46 | 44.55279 | 2.70164 | 30106 ft | 409 kts | 216° |
| 2026-05-05 20:46 | 44.52982 | 2.67775 | 29242 ft | 410 kts | 216° |
| 2026-05-05 20:47 | 44.50696 | 2.65397 | 28487 ft | 412 kts | 215° |
| 2026-05-05 20:47 | 44.48383 | 2.62996 | 27856 ft | 415 kts | 215° |
| 2026-05-05 20:47 | 44.46073 | 2.60599 | 27226 ft | 411 kts | 215° |
| 2026-05-05 20:47 | 44.43787 | 2.58230 | 26591 ft | 407 kts | 215° |
| 2026-05-05 20:48 | 44.41552 | 2.55917 | 25963 ft | 403 kts | 215° |
| 2026-05-05 20:48 | 44.39311 | 2.53599 | 25351 ft | 399 kts | 215° |
| 2026-05-05 20:48 | 44.37084 | 2.51298 | 24741 ft | 395 kts | 214° |
| 2026-05-05 20:48 | 44.34881 | 2.49023 | 24123 ft | 392 kts | 214° |
| 2026-05-05 20:49 | 44.32695 | 2.46770 | 23488 ft | 388 kts | 214° |
| 2026-05-05 20:49 | 44.30535 | 2.44546 | 22791 ft | 384 kts | 214° |
| 2026-05-05 20:49 | 44.28400 | 2.42351 | 22142 ft | 377 kts | 214° |
| 2026-05-05 20:49 | 44.26419 | 2.40316 | 21540 ft | 371 kts | 214° |
| 2026-05-05 20:50 | 44.24351 | 2.38194 | 20927 ft | 365 kts | 214° |
| 2026-05-05 20:50 | 44.22274 | 2.36070 | 20476 ft | 378 kts | 215° |
| 2026-05-05 20:50 | 44.20147 | 2.33899 | 19906 ft | 377 kts | 215° |
| 2026-05-05 20:50 | 44.18047 | 2.31754 | 19303 ft | 372 kts | 215° |
| 2026-05-05 20:51 | 44.15963 | 2.29620 | 18718 ft | 370 kts | 216° |
| 2026-05-05 20:51 | 44.13887 | 2.27501 | 18146 ft | 370 kts | 216° |
| 2026-05-05 20:51 | 44.11870 | 2.25447 | 17579 ft | 369 kts | 216° |
| 2026-05-05 20:51 | 44.09797 | 2.23335 | 17010 ft | 368 kts | 216° |
| 2026-05-05 20:52 | 44.07730 | 2.21229 | 16450 ft | 367 kts | 216° |
| 2026-05-05 20:52 | 44.05673 | 2.19135 | 15931 ft | 366 kts | 217° |
| 2026-05-05 20:52 | 44.03623 | 2.17043 | 15437 ft | 365 kts | 217° |
| 2026-05-05 20:52 | 44.01581 | 2.14959 | 14951 ft | 363 kts | 217° |
| 2026-05-05 20:53 | 43.99541 | 2.12885 | 14446 ft | 363 kts | 217° |
| 2026-05-05 20:53 | 43.97534 | 2.10843 | 13960 ft | 362 kts | 217° |
| 2026-05-05 20:53 | 43.95496 | 2.08776 | 13421 ft | 362 kts | 217° |
| 2026-05-05 20:53 | 43.93463 | 2.06712 | 12886 ft | 362 kts | 217° |
| 2026-05-05 20:54 | 43.91435 | 2.04659 | 12383 ft | 360 kts | 217° |
| 2026-05-05 20:54 | 43.89413 | 2.02611 | 11876 ft | 359 kts | 217° |
| 2026-05-05 20:54 | 43.87399 | 2.00577 | 11363 ft | 357 kts | 217° |
| 2026-05-05 20:54 | 43.85419 | 1.98578 | 11027 ft | 345 kts | 217° |
| 2026-05-05 20:55 | 43.83520 | 1.96657 | 10802 ft | 331 kts | 217° |
| 2026-05-05 20:55 | 43.81697 | 1.94816 | 10609 ft | 317 kts | 217° |
| 2026-05-05 20:55 | 43.79953 | 1.93059 | 10432 ft | 303 kts | 217° |
| 2026-05-05 20:55 | 43.78287 | 1.91379 | 10264 ft | 290 kts | 218° |
| 2026-05-05 20:56 | 43.76685 | 1.89766 | 9984 ft | 282 kts | 218° |
| 2026-05-05 20:56 | 43.75099 | 1.88176 | 9496 ft | 282 kts | 218° |
| 2026-05-05 20:56 | 43.73561 | 1.86633 | 9013 ft | 281 kts | 218° |
| 2026-05-05 20:56 | 43.71978 | 1.85047 | 8569 ft | 279 kts | 218° |
| 2026-05-05 20:57 | 43.70432 | 1.83494 | 8165 ft | 277 kts | 218° |
| 2026-05-05 20:57 | 43.68888 | 1.81942 | 7785 ft | 273 kts | 218° |
| 2026-05-05 20:57 | 43.67355 | 1.80405 | 7430 ft | 272 kts | 218° |
| 2026-05-05 20:57 | 43.65807 | 1.78849 | 7143 ft | 269 kts | 218° |
| 2026-05-05 20:58 | 43.64309 | 1.77338 | 6762 ft | 267 kts | 218° |
| 2026-05-05 20:58 | 43.62901 | 1.75916 | 6359 ft | 270 kts | 218° |
| 2026-05-05 20:58 | 43.61372 | 1.74398 | 5950 ft | 272 kts | 218° |
| 2026-05-05 20:58 | 43.59849 | 1.72886 | 5572 ft | 268 kts | 218° |
| 2026-05-05 20:59 | 43.58344 | 1.71387 | 5234 ft | 265 kts | 218° |
| 2026-05-05 20:59 | 43.56854 | 1.69902 | 4900 ft | 264 kts | 218° |
| 2026-05-05 20:59 | 43.55365 | 1.68420 | 4547 ft | 264 kts | 218° |
| 2026-05-05 20:59 | 43.53877 | 1.66944 | 4181 ft | 264 kts | 218° |
| 2026-05-05 21:00 | 43.52402 | 1.65482 | 3892 ft | 258 kts | 218° |
| 2026-05-05 21:00 | 43.50969 | 1.64055 | 3656 ft | 248 kts | 219° |
| 2026-05-05 21:00 | 43.49621 | 1.62717 | 3697 ft | 229 kts | 219° |
| 2026-05-05 21:00 | 43.48429 | 1.61291 | 3781 ft | 226 kts | 235° |
| 2026-05-05 21:01 | 43.47789 | 1.59366 | 3712 ft | 220 kts | 259° |
| 2026-05-05 21:01 | 43.47489 | 1.57354 | 3575 ft | 208 kts | 261° |
| 2026-05-05 21:01 | 43.47231 | 1.55507 | 3385 ft | 198 kts | 262° |
| 2026-05-05 21:01 | 43.47144 | 1.53655 | 3149 ft | 193 kts | 280° |
| 2026-05-05 21:02 | 43.47671 | 1.51997 | 3000 ft | 193 kts | 309° |
| 2026-05-05 21:02 | 43.48671 | 1.50756 | 2987 ft | 195 kts | 325° |
| 2026-05-05 21:02 | 43.49816 | 1.49748 | 2993 ft | 194 kts | 321° |
| 2026-05-05 21:02 | 43.50897 | 1.48639 | 2989 ft | 194 kts | 320° |
| 2026-05-05 21:03 | 43.51979 | 1.47518 | 2946 ft | 194 kts | 321° |
| 2026-05-05 21:03 | 43.53039 | 1.46418 | 2744 ft | 193 kts | 320° |
| 2026-05-05 21:03 | 43.54111 | 1.45304 | 2481 ft | 191 kts | 320° |
| 2026-05-05 21:03 | 43.55139 | 1.44236 | 2293 ft | 179 kts | 320° |
| 2026-05-05 21:04 | 43.56101 | 1.43236 | 2042 ft | 166 kts | 320° |
| 2026-05-05 21:04 | 43.56978 | 1.42325 | 1818 ft | 147 kts | 319° |
| 2026-05-05 21:04 | 43.57743 | 1.41529 | 1565 ft | 131 kts | 319° |
| 2026-05-05 21:04 | 43.58472 | 1.40769 | 1363 ft | 133 kts | 320° |
| 2026-05-05 21:05 | 43.59221 | 1.39989 | 1176 ft | 136 kts | 320° |
| 2026-05-05 21:05 | 43.59979 | 1.39201 | 999 ft | 137 kts | 320° |
| 2026-05-05 21:05 | 43.60741 | 1.38407 | 818 ft | 138 kts | 321° |
| 2026-05-05 21:05 | 43.61507 | 1.37619 | 639 ft | 137 kts | 321° |
| 2026-05-05 21:06 | 43.62261 | 1.36832 | 510 ft | 130 kts | 321° |
| 2026-05-05 21:06 | 43.62879 | 1.36186 | 499 ft | 85 kts | 323° |
| 2026-05-05 21:06 | 43.63189 | 1.35863 | 499 ft | 31 kts | 323° |
| 2026-05-05 21:06 | 43.63365 | 1.35683 | 499 ft | 32 kts | 323° |
| 2026-05-05 21:07 | 43.63497 | 1.35545 | 499 ft | 18 kts | 323° |
| 2026-05-05 21:07 | 43.63562 | 1.35497 | 499 ft | 8 kts | 6° |
| 2026-05-05 21:07 | 43.63609 | 1.35555 | 499 ft | 11 kts | 53° |
| 2026-05-05 21:07 | 43.63660 | 1.35648 | 499 ft | 13 kts | 52° |
| 2026-05-05 21:08 | 43.63720 | 1.35756 | 499 ft | 15 kts | 52° |
| 2026-05-05 21:08 | 43.63787 | 1.35877 | 499 ft | 17 kts | 52° |
| 2026-05-05 21:08 | 43.63811 | 1.35988 | 499 ft | 13 kts | 117° |
| 2026-05-05 21:08 | 43.63737 | 1.36075 | 499 ft | 15 kts | 143° |
| 2026-05-05 21:09 | 43.63642 | 1.36173 | 499 ft | 19 kts | 143° |
| 2026-05-05 21:09 | 43.63524 | 1.36296 | 499 ft | 23 kts | 142° |
| 2026-05-05 21:09 | 43.63387 | 1.36441 | 499 ft | 26 kts | 143° |
| 2026-05-05 21:09 | 43.63239 | 1.36593 | 499 ft | 27 kts | 143° |
| 2026-05-05 21:10 | 43.63092 | 1.36745 | 499 ft | 20 kts | 143° |
| 2026-05-05 21:10 | 43.62980 | 1.36860 | 499 ft | 21 kts | 142° |
| 2026-05-05 21:10 | 43.62875 | 1.36971 | 499 ft | 15 kts | 142° |
| 2026-05-05 21:10 | 43.62832 | 1.37043 | 499 ft | 9 kts | 91° |
| 2026-05-05 21:11 | 43.62868 | 1.37130 | 499 ft | 13 kts | 50° |
| 2026-05-05 21:11 | 43.62895 | 1.37244 | 499 ft | 14 kts | 117° |
| 2026-05-05 21:11 | 43.62815 | 1.37340 | 499 ft | 16 kts | 144° |
| 2026-05-05 21:11 | 43.62797 | 1.37392 | 499 ft | 6 kts | 72° |
| 2026-05-05 21:12 | 43.62820 | 1.37471 | 499 ft | 11 kts | 72° |
| 2026-05-05 21:12 | 43.62827 | 1.37499 | 499 ft | 0 kts | 72° |
| 2026-05-05 21:13 | 43.62829 | 1.37509 | 499 ft | 3 kts | 72° |
| 2026-05-05 21:13 | 43.62841 | 1.37547 | 499 ft | 5 kts | 53° |
| 2026-05-05 21:14 | 43.62862 | 1.37583 | 499 ft | 2 kts | 52° |
| 2026-05-05 21:14 | 43.62866 | 1.37591 | 499 ft | 0 kts | 52° |
| 2026-05-05 21:14 | 43.62867 | 1.37592 | 499 ft | 0 kts | 52° |